createdAt,value
2022-09-15T00:00:17.234Z,99530.59
2022-09-15T00:01:21.572Z,99533.18
2022-09-15T00:02:26.129Z,99528.34
2022-09-15T00:03:30.588Z,99531.92
2022-09-15T00:04:34.778Z,99528.34
2022-09-15T00:05:38.984Z,99530.91
2022-09-15T00:06:43.170Z,99516.89
2022-09-15T00:07:47.376Z,99522.14
2022-09-15T00:08:51.615Z,99518.33
2022-09-15T00:09:55.887Z,99513.36
2022-09-15T00:11:00.099Z,99518.82
2022-09-15T00:12:05.279Z,99515.82
2022-09-15T00:13:09.486Z,99516.76
2022-09-15T00:14:13.692Z,99510.98
2022-09-15T00:15:17.884Z,99521.72
2022-09-15T00:16:22.246Z,99516.34
2022-09-15T00:17:26.520Z,99516.14
2022-09-15T00:18:30.774Z,99506.97
2022-09-15T00:19:35.005Z,99512.95
2022-09-15T00:20:39.191Z,99512.55
2022-09-15T00:21:43.379Z,99517.28
2022-09-15T00:22:47.559Z,99519.03
2022-09-15T00:23:51.762Z,99514.59
2022-09-15T00:24:55.959Z,99516.76
2022-09-15T00:26:00.119Z,99522.66
2022-09-15T00:27:04.314Z,99521.31
2022-09-15T00:28:08.504Z,99524.9
2022-09-15T00:29:12.698Z,99525.75
2022-09-15T00:30:17.002Z,99524
2022-09-15T00:31:21.410Z,99523.78
2022-09-15T00:32:25.779Z,99527.31
2022-09-15T00:33:30.003Z,99528.34
2022-09-15T00:34:34.195Z,99529.88
2022-09-15T00:35:38.389Z,99535.47
2022-09-15T00:36:42.666Z,99531.94
2022-09-15T00:37:46.861Z,99529.58
2022-09-15T00:38:51.067Z,99530.91
2022-09-15T00:39:55.384Z,99534.34
2022-09-15T00:40:59.604Z,99534.93
2022-09-15T00:42:03.792Z,99529.37
2022-09-15T00:43:07.988Z,99518.33
2022-09-15T00:44:12.207Z,99525.97
2022-09-15T00:45:16.395Z,99515.23
2022-09-15T00:46:20.824Z,99522.97
2022-09-15T00:47:25.247Z,99522.13
2022-09-15T00:48:30.473Z,99517.69
2022-09-15T00:49:34.650Z,99517.39
2022-09-15T00:50:38.821Z,99520.48
2022-09-15T00:51:43.006Z,99517.48
2022-09-15T00:52:47.237Z,99520.16
2022-09-15T00:53:51.808Z,99522.13
2022-09-15T00:54:56.168Z,99523.06
2022-09-15T00:56:00.379Z,99525.34
2022-09-15T00:57:04.573Z,99516.84
2022-09-15T00:58:08.781Z,99516.34
2022-09-15T00:59:12.988Z,99517.59
2022-09-15T01:00:17.193Z,99515.73
2022-09-15T01:01:21.536Z,99516.66
2022-09-15T01:02:26.037Z,99523.7
2022-09-15T01:03:32.879Z,99521.09
2022-09-15T01:04:37.374Z,99519.58
2022-09-15T01:05:41.602Z,99527.31
2022-09-15T01:06:45.810Z,99522.26
2022-09-15T01:07:49.971Z,99521.5
2022-09-15T01:08:54.184Z,99519.67
2022-09-15T01:09:58.389Z,99522.76
2022-09-15T01:11:02.569Z,99517.48
2022-09-15T01:12:06.759Z,99513.19
2022-09-15T01:13:10.964Z,99514.09
2022-09-15T01:14:15.139Z,99511.94
2022-09-15T01:15:19.316Z,99515.75
2022-09-15T01:16:23.662Z,99519.59
2022-09-15T01:17:27.949Z,99518.24
2022-09-15T01:18:32.357Z,99519.47
2022-09-15T01:19:36.550Z,99523.7
2022-09-15T01:20:40.769Z,99521.74
2022-09-15T01:21:44.974Z,99519.47
2022-09-15T01:22:49.230Z,99520.72
2022-09-15T01:23:53.490Z,99520.22
2022-09-15T01:24:57.704Z,99521.95
2022-09-15T01:26:01.938Z,99523.61
2022-09-15T01:27:41.917Z,99529.08
2022-09-15T01:28:46.655Z,99537.04
2022-09-15T01:29:50.894Z,99532.39
2022-09-15T01:30:55.072Z,99532.26
2022-09-15T01:31:59.425Z,99527.63
2022-09-15T01:33:03.682Z,99532.25
2022-09-15T01:34:07.875Z,99530.81
2022-09-15T01:35:12.079Z,99526.58
2022-09-15T01:36:17.296Z,99528.22
2022-09-15T01:37:21.465Z,99533.5
2022-09-15T01:38:25.773Z,99535.45
2022-09-15T01:39:29.930Z,99532.05
2022-09-15T01:40:34.311Z,99528.92
2022-09-15T01:41:38.534Z,99533.58
2022-09-15T01:42:42.767Z,99525.11
2022-09-15T01:43:47.021Z,99524
2022-09-15T01:44:51.217Z,99526.86
2022-09-15T01:45:55.509Z,99524.09
2022-09-15T01:46:59.842Z,99522.22
2022-09-15T01:48:04.029Z,99523.88
2022-09-15T01:49:08.240Z,99523.48
2022-09-15T01:50:12.464Z,99522.97
2022-09-15T01:51:16.634Z,99528.2
2022-09-15T01:52:20.833Z,99521.09
2022-09-15T01:53:25.053Z,99526.36
2022-09-15T01:54:29.234Z,99527.89
2022-09-15T01:55:33.424Z,99526.36
2022-09-15T01:56:37.630Z,99529.45
2022-09-15T01:57:41.829Z,99522.92
2022-09-15T01:58:46.089Z,99515.19
2022-09-15T01:59:50.264Z,99519.53
2022-09-15T02:00:54.549Z,99519.84
2022-09-15T02:01:58.992Z,99526.69
2022-09-15T02:03:03.442Z,99524.31
2022-09-15T02:04:07.647Z,99522.74
2022-09-15T02:05:11.869Z,99527.09
2022-09-15T02:06:16.076Z,99529.16
2022-09-15T02:07:20.282Z,99528.11
2022-09-15T02:08:24.482Z,99533.27
2022-09-15T02:09:28.759Z,99532.05
2022-09-15T02:10:32.962Z,99530.91
2022-09-15T02:11:37.141Z,99526.24
2022-09-15T02:12:41.358Z,99534.42
2022-09-15T02:13:45.586Z,99527.39
2022-09-15T02:14:49.776Z,99525.83
2022-09-15T02:15:53.996Z,99526.95
2022-09-15T02:16:58.205Z,99527.7
2022-09-15T02:18:02.430Z,99523.86
2022-09-15T02:19:06.690Z,99534.2
2022-09-15T02:20:10.909Z,99531.61
2022-09-15T02:21:15.086Z,99527.27
2022-09-15T02:22:19.336Z,99535.77
2022-09-15T02:23:23.550Z,99532.05
2022-09-15T02:24:27.780Z,99541.33
2022-09-15T02:25:32.021Z,99535.94
2022-09-15T02:26:36.209Z,99534.6
2022-09-15T02:27:40.419Z,99531.51
2022-09-15T02:28:44.703Z,99535.23
2022-09-15T02:29:48.925Z,99530.26
2022-09-15T02:30:55.493Z,99531.2
2022-09-15T02:32:02.626Z,99529.05
2022-09-15T02:33:10.756Z,99530.66
2022-09-15T02:34:15.017Z,99536.16
2022-09-15T02:35:19.234Z,99524.78
2022-09-15T02:36:23.441Z,99531.38
2022-09-15T02:37:27.647Z,99528.5
2022-09-15T02:38:31.862Z,99525.1
2022-09-15T02:39:36.055Z,99532.94
2022-09-15T02:40:40.265Z,99533.78
2022-09-15T02:41:44.464Z,99533.56
2022-09-15T02:42:48.925Z,99537.68
2022-09-15T02:43:53.234Z,99543.36
2022-09-15T02:44:57.493Z,99532.62
2022-09-15T02:46:01.885Z,99532.85
2022-09-15T02:47:06.201Z,99531.6
2022-09-15T02:48:10.446Z,99534.19
2022-09-15T02:49:14.644Z,99530.88
2022-09-15T02:50:18.815Z,99520.44
2022-09-15T02:51:23.027Z,99520.53
2022-09-15T02:52:27.248Z,99511.45
2022-09-15T02:53:31.464Z,99520.53
2022-09-15T02:54:35.674Z,99516.09
2022-09-15T02:55:39.884Z,99519.19
2022-09-15T02:56:44.056Z,99511.95
2022-09-15T02:57:48.257Z,99518.48
2022-09-15T02:58:52.487Z,99524.88
2022-09-15T02:59:56.780Z,99516.82
2022-09-15T03:01:01.069Z,99523.32
2022-09-15T03:02:06.520Z,99517.32
2022-09-15T03:03:10.836Z,99525.96
2022-09-15T03:04:15.034Z,99520.69
2022-09-15T03:05:19.283Z,99518.44
2022-09-15T03:06:23.505Z,99517.59
2022-09-15T03:07:27.702Z,99518
2022-09-15T03:08:31.887Z,99517.59
2022-09-15T03:09:36.101Z,99514.81
2022-09-15T03:10:40.317Z,99514.5
2022-09-15T03:11:44.522Z,99520.36
2022-09-15T03:12:48.732Z,99519.55
2022-09-15T03:13:53.105Z,99519.46
2022-09-15T03:14:57.316Z,99524.83
2022-09-15T03:16:01.608Z,99519.95
2022-09-15T03:17:05.916Z,99523.05
2022-09-15T03:18:10.110Z,99515.94
2022-09-15T03:19:14.348Z,99513.66
2022-09-15T03:20:18.573Z,99515
2022-09-15T03:21:22.786Z,99518.61
2022-09-15T03:22:26.957Z,99519.87
2022-09-15T03:23:31.192Z,99522.14
2022-09-15T03:24:35.393Z,99516.34
2022-09-15T03:25:39.611Z,99518.12
2022-09-15T03:26:43.787Z,99516.16
2022-09-15T03:27:48.033Z,99518.44
2022-09-15T03:28:52.320Z,99524.56
2022-09-15T03:29:56.752Z,99521.47
2022-09-15T03:31:00.955Z,99523.8
2022-09-15T03:32:05.235Z,99525.23
2022-09-15T03:33:09.446Z,99522.87
2022-09-15T03:34:13.811Z,99521.47
2022-09-15T03:35:18.010Z,99526.89
2022-09-15T03:36:22.162Z,99522.02
2022-09-15T03:37:26.390Z,99526.4
2022-09-15T03:38:30.563Z,99525.49
2022-09-15T03:39:34.761Z,99532.2
2022-09-15T03:40:38.979Z,99532.52
2022-09-15T03:41:43.142Z,99530.65
2022-09-15T03:42:47.323Z,99529.85
2022-09-15T03:43:51.541Z,99529.94
2022-09-15T03:44:55.818Z,99532.72
2022-09-15T03:46:00.209Z,99533.16
2022-09-15T03:47:04.704Z,99529.63
2022-09-15T03:48:08.898Z,99539.34
2022-09-15T03:49:13.075Z,99527.16
2022-09-15T03:50:17.231Z,99536.97
2022-09-15T03:51:21.444Z,99532.12
2022-09-15T03:52:25.639Z,99534.81
2022-09-15T03:53:29.824Z,99540.06
2022-09-15T03:54:34.006Z,99531.19
2022-09-15T03:55:38.164Z,99534.3
2022-09-15T03:56:42.444Z,99534.2
2022-09-15T03:57:46.646Z,99530.89
2022-09-15T03:58:50.838Z,99532.32
2022-09-15T03:59:55.021Z,99536.47
2022-09-15T04:00:59.391Z,99532.53
2022-09-15T04:02:03.944Z,99528.69
2022-09-15T04:03:08.264Z,99529.53
2022-09-15T04:04:12.503Z,99527.87
2022-09-15T04:05:16.735Z,99529.22
2022-09-15T04:06:20.977Z,99531.05
2022-09-15T04:07:25.193Z,99529.63
2022-09-15T04:08:29.431Z,99532.55
2022-09-15T16:04:44.079Z,99502.48
2022-09-15T16:05:48.284Z,99502.15
2022-09-15T16:06:52.494Z,99510.98
2022-09-15T16:07:56.701Z,99503.27
2022-09-15T16:09:00.923Z,99509.36
2022-09-15T16:10:05.165Z,99510.2
2022-09-15T16:11:09.392Z,99504.92
2022-09-15T16:12:13.611Z,99506.17
2022-09-15T16:13:17.980Z,99507.61
2022-09-15T16:14:22.299Z,99510.7
2022-09-15T16:15:26.825Z,99512.97
2022-09-15T16:16:31.174Z,99517.55
2022-09-15T16:17:35.476Z,99512.89
2022-09-15T16:18:39.684Z,99513.53
2022-09-15T16:19:43.882Z,99517.37
2022-09-15T16:20:48.096Z,99517.26
2022-09-15T16:21:52.379Z,99512.41
2022-09-15T16:22:56.564Z,99509.73
2022-09-15T16:24:00.751Z,99516.66
2022-09-15T16:25:04.932Z,99519.75
2022-09-15T16:26:09.113Z,99522.94
2022-09-15T16:27:13.300Z,99516.35
2022-09-15T16:28:17.502Z,99520.45
2022-09-15T16:29:21.796Z,99514.59
2022-09-15T16:30:26.050Z,99522.48
2022-09-15T16:31:30.435Z,99518.33
2022-09-15T16:32:34.764Z,99516.27
2022-09-15T16:33:39.318Z,99516.34
2022-09-15T16:34:43.537Z,99520.24
2022-09-15T16:35:47.700Z,99521.19
2022-09-15T16:36:54.180Z,99520.78
2022-09-15T16:37:58.368Z,99517.6
2022-09-15T16:39:02.591Z,99511.61
2022-09-15T16:40:06.924Z,99513.35
2022-09-15T16:41:11.223Z,99523.38
2022-09-15T16:42:15.696Z,99522.52
2022-09-15T16:43:19.890Z,99514.64
2022-09-15T16:44:24.117Z,99517.22
2022-09-15T16:45:28.473Z,99512.87
2022-09-15T16:46:33.160Z,99514.71
2022-09-15T16:47:37.550Z,99522.45
2022-09-15T16:48:41.769Z,99519.34
2022-09-15T16:49:45.939Z,99519.62
2022-09-15T16:51:27.326Z,99519.83
2022-09-15T16:52:35.009Z,99523.23
2022-09-15T16:53:39.234Z,99524.66
2022-09-15T16:54:43.495Z,99527.44
2022-09-15T16:55:47.871Z,99527.13
2022-09-15T16:56:52.182Z,99526.81
2022-09-15T16:57:56.418Z,99529.49
2022-09-15T16:59:01.848Z,99530.2
2022-09-15T17:00:06.471Z,99528.98
2022-09-15T17:01:10.821Z,99532.48
2022-09-15T17:02:16.375Z,99534.36
2022-09-15T17:03:20.753Z,99532.57
2022-09-15T17:04:25.029Z,99536.19
2022-09-15T17:05:29.323Z,99537.04
2022-09-15T17:06:33.594Z,99532.08
2022-09-15T17:07:37.768Z,99531.94
2022-09-15T17:08:41.996Z,99537.73
2022-09-15T17:09:46.239Z,99535.55
2022-09-15T17:10:50.453Z,99532.95
2022-09-15T17:11:54.638Z,99531.3
2022-09-15T17:12:58.805Z,99526.77
2022-09-15T17:14:06.087Z,99531.91
2022-09-15T17:15:10.314Z,99529.33
2022-09-15T17:16:14.662Z,99531.38
2022-09-15T17:17:19.016Z,99534.81
2022-09-15T17:18:23.224Z,99529.72
2022-09-15T17:19:27.414Z,99531.38
2022-09-15T17:20:33.777Z,99537.58
2022-09-15T17:21:42.586Z,99536.23
2022-09-15T17:22:46.790Z,99533.29
2022-09-15T17:23:50.983Z,99541.25
2022-09-15T17:24:55.379Z,99540.31
2022-09-15T17:25:59.563Z,99541.66
2022-09-15T17:27:03.784Z,99540.72
2022-09-15T17:28:07.951Z,99538.97
2022-09-15T17:29:12.123Z,99540.72
2022-09-15T17:30:16.387Z,99539.47
2022-09-15T17:31:20.760Z,99542.82
2022-09-15T17:32:25.067Z,99549.03
2022-09-15T17:33:29.385Z,99543.14
2022-09-15T17:34:33.572Z,99546.36
2022-09-15T17:35:37.911Z,99553.22
2022-09-15T17:36:42.119Z,99550.53
2022-09-15T17:37:46.451Z,99545.47
2022-09-15T17:38:50.748Z,99549.06
2022-09-15T17:39:59.727Z,99548.66
2022-09-15T17:41:03.969Z,99550.41
2022-09-15T17:42:08.466Z,99553.63
2022-09-15T17:43:12.690Z,99552.37
2022-09-15T17:44:16.904Z,99550.94
2022-09-15T17:45:21.152Z,99544.22
2022-09-15T17:46:25.555Z,99549.19
2022-09-15T17:47:29.902Z,99548.34
2022-09-15T17:48:34.152Z,99541.02
2022-09-15T17:49:38.456Z,99536.66
2022-09-15T17:50:42.633Z,99544.13
2022-09-15T17:51:46.858Z,99542.27
2022-09-15T17:52:51.062Z,99545.8
2022-09-15T17:53:55.242Z,99549.38
2022-09-15T17:54:59.457Z,99550.45
2022-09-15T17:56:03.672Z,99545.98
2022-09-15T17:57:07.879Z,99547.86
2022-09-15T17:58:12.044Z,99538.78
2022-09-15T17:59:17.402Z,99551.8
2022-09-15T18:00:21.581Z,99546.7
2022-09-15T18:01:25.889Z,99552.2
2022-09-15T18:02:30.322Z,99554.56
2022-09-15T18:03:34.659Z,99546.42
2022-09-15T18:04:38.946Z,99552.91
2022-09-15T18:05:43.109Z,99558.51
2022-09-15T18:06:47.329Z,99560.75
2022-09-15T18:07:51.495Z,99557.04
2022-09-15T18:08:55.717Z,99559.23
2022-09-15T18:09:59.917Z,99558.79
2022-09-15T18:11:04.133Z,99563.58
2022-09-15T18:12:08.407Z,99566.75
2022-09-15T18:13:12.572Z,99562.32
2022-09-15T18:14:16.771Z,99569.53
2022-09-15T18:15:20.963Z,99566.75
2022-09-15T18:16:25.228Z,99565.73
2022-09-15T18:17:29.489Z,99569.34
2022-09-15T18:18:33.711Z,99570.78
2022-09-15T18:19:37.979Z,99569.53
2022-09-15T18:20:42.150Z,99572.66
2022-09-15T18:21:48.715Z,99574.9
2022-09-15T18:22:52.924Z,99569.53
2022-09-15T18:23:57.222Z,99569.75
2022-09-15T18:25:01.435Z,99569.58
2022-09-15T18:26:05.671Z,99565.55
2022-09-15T18:27:09.916Z,99570.3
2022-09-15T18:28:14.103Z,99569.59
2022-09-15T18:29:18.297Z,99572.77
2022-09-15T18:30:22.494Z,99573.3
2022-09-15T18:31:29.026Z,99569.77
2022-09-15T18:32:33.378Z,99568.87
2022-09-15T18:33:37.581Z,99574.42
2022-09-15T18:34:41.755Z,99569.45
2022-09-15T18:35:46.181Z,99575.27
2022-09-15T18:36:51.410Z,99568.55
2022-09-15T18:37:55.617Z,99574.11
2022-09-15T18:38:59.827Z,99574.55
2022-09-15T18:40:04.114Z,99574.64
2022-09-15T18:41:08.401Z,99573.39
2022-09-15T18:42:12.573Z,99576.61
2022-09-15T18:43:17.765Z,99574.83
2022-09-15T18:44:21.946Z,99577.95
2022-09-15T18:45:26.163Z,99580.63
2022-09-15T18:46:30.622Z,99576.16
2022-09-15T18:47:34.929Z,99581.86
2022-09-15T18:48:39.096Z,99575.45
2022-09-15T18:49:43.543Z,99577.64
2022-09-15T18:50:47.719Z,99574.87
2022-09-15T18:51:53.094Z,99580.55
2022-09-15T18:52:57.304Z,99583.97
2022-09-15T18:54:03.826Z,99576.72
2022-09-15T18:55:08.033Z,99579.14
2022-09-15T18:56:12.227Z,99582.14
2022-09-15T18:57:16.400Z,99574.4
2022-09-15T18:58:20.616Z,99578.22
2022-09-15T18:59:24.878Z,99578.94
2022-09-15T19:00:29.043Z,99577.91
2022-09-15T19:01:33.489Z,99580.19
2022-09-15T19:02:38.200Z,99577.19
2022-09-15T19:03:45.181Z,99579.65
2022-09-15T19:04:49.629Z,99579.03
2022-09-15T19:05:53.811Z,99585.45
2022-09-15T19:07:01.014Z,99595.45
2022-09-15T19:08:05.191Z,99588.33
2022-09-15T19:09:09.371Z,99586.26
2022-09-15T19:10:13.558Z,99586.88
2022-09-15T19:11:17.721Z,99584.51
2022-09-15T19:13:26.068Z,99585.41
2022-09-15T19:14:30.253Z,99584.38
2022-09-15T19:15:34.733Z,99583.03
2022-09-15T19:16:58.537Z,99585.22
2022-09-15T19:18:03.044Z,99582.63
2022-09-15T19:19:07.260Z,99584.54
2022-09-15T19:20:11.690Z,99586.09
2022-09-15T19:21:15.920Z,99583.64
2022-09-15T19:22:20.518Z,99584.12
2022-09-15T19:23:24.692Z,99584.52
2022-09-15T19:24:28.954Z,99585.47
2022-09-15T19:25:33.135Z,99580.73
2022-09-15T19:26:37.430Z,99583.33
2022-09-15T19:27:41.608Z,99590.05
2022-09-15T19:28:45.877Z,99594.48
2022-09-15T19:29:50.102Z,99582.8
2022-09-15T19:30:54.417Z,99591.61
2022-09-15T19:31:58.741Z,99588.81
2022-09-15T19:33:03.001Z,99588.31
2022-09-15T19:34:07.195Z,99589.03
2022-09-15T19:35:11.365Z,99596.06
2022-09-15T19:36:29.493Z,99596.61
2022-09-15T19:37:33.762Z,99592.67
2022-09-15T19:38:37.964Z,99591.87
2022-09-15T19:39:42.161Z,99592.89
2022-09-15T19:40:46.339Z,99593.52
2022-09-15T19:41:50.538Z,99597.44
2022-09-15T19:42:54.727Z,99601.99
2022-09-15T19:43:58.910Z,99598.98
2022-09-15T19:45:03.194Z,99600.75
2022-09-15T19:46:08.543Z,99596.33
2022-09-15T19:47:12.864Z,99602.63
2022-09-15T19:48:17.039Z,99605.08
2022-09-15T19:49:21.234Z,99608.62
2022-09-15T19:50:25.424Z,99608.09
2022-09-15T19:51:29.691Z,99610.45
2022-09-15T19:52:33.886Z,99603.83
2022-09-15T19:53:40.576Z,99601.38
2022-09-15T19:54:44.755Z,99603.97
2022-09-15T19:55:48.935Z,99601.38
2022-09-15T19:56:53.147Z,99600.44
2022-09-15T19:57:57.342Z,99602.85
2022-09-15T19:59:01.572Z,99609.44
2022-09-15T20:00:05.796Z,99608.72
2022-09-15T20:01:10.075Z,99611.72
2022-09-15T20:02:24.998Z,99608.62
2022-09-15T20:03:31.697Z,99610.78
2022-09-15T20:04:38.250Z,99614.94
2022-09-15T20:05:48.900Z,99610.06
2022-09-15T20:06:57.029Z,99616.69
2022-09-15T20:08:04.055Z,99620.19
2022-09-15T20:09:10.739Z,99616.28
2022-09-15T20:10:17.505Z,99612.13
2022-09-15T20:11:24.144Z,99615.34
2022-09-15T20:12:30.816Z,99610.78
2022-09-15T20:13:38.869Z,99607.69
2022-09-15T20:14:45.464Z,99613.47
2022-09-15T20:15:51.350Z,99614.81
2022-09-15T20:17:01.951Z,99607.69
2022-09-15T20:18:11.306Z,99614.41
2022-09-15T20:19:18.329Z,99614.31
2022-09-15T20:20:24.904Z,99617.32
2022-09-15T20:21:52.167Z,99617
2022-09-15T20:22:59.671Z,99618.84
2022-09-15T20:24:17.577Z,99615.34
2022-09-15T20:25:26.005Z,99615.98
2022-09-15T20:26:31.843Z,99618.13
2022-09-15T20:27:38.267Z,99613.7
2022-09-15T20:28:45.397Z,99615.88
2022-09-15T20:29:52.032Z,99624.27
2022-09-15T20:30:57.969Z,99617.11
2022-09-15T20:32:04.360Z,99621.26
2022-09-15T20:33:10.658Z,99616.47
2022-09-15T20:34:17.283Z,99618.66
2022-09-15T20:35:23.652Z,99615.27
2022-09-15T20:36:30.024Z,99619.39
2022-09-15T20:37:39.253Z,99622.92
2022-09-15T20:38:47.302Z,99620.42
2022-09-15T20:39:56.573Z,99624.27
2022-09-15T20:41:03.100Z,99618.67
2022-09-15T20:42:09.430Z,99620.42
2022-09-15T20:43:15.817Z,99622.2
2022-09-15T20:44:23.870Z,99620.74
2022-09-15T20:45:32.815Z,99625.39
2022-09-15T20:46:41.764Z,99618.69
2022-09-15T20:47:46.778Z,99621.38
2022-09-15T20:48:52.513Z,99627.29
2022-09-15T20:49:59.706Z,99628.96
2022-09-15T20:51:06.687Z,99625.46
2022-09-15T20:52:13.596Z,99626.05
2022-09-15T20:53:19.974Z,99621.43
2022-09-15T20:54:28.678Z,99626.19
2022-09-15T20:55:34.715Z,99626.6
2022-09-15T20:56:40.510Z,99622.25
2022-09-15T20:57:46.559Z,99617
2022-09-15T20:58:52.003Z,99616.96
2022-09-15T20:59:57.861Z,99622.95
2022-09-15T21:01:03.330Z,99616.64
2022-09-15T21:02:08.604Z,99620.05
2022-09-15T21:03:14.108Z,99623.8
2022-09-15T21:04:21.360Z,99628.02
2022-09-15T21:05:26.485Z,99621.3
2022-09-15T21:06:31.453Z,99623.98
2022-09-15T21:07:36.075Z,99618.7
2022-09-15T21:08:43.958Z,99617.36
2022-09-15T21:09:49.838Z,99613.46
2022-09-15T21:10:54.477Z,99626.09
2022-09-15T21:11:59.355Z,99617.19
2022-09-15T21:13:03.736Z,99623.8
2022-09-15T21:14:08.147Z,99627.37
2022-09-15T21:15:12.598Z,99625.84
2022-09-15T21:16:17.104Z,99629.83
2022-09-15T21:17:21.626Z,99633.54
2022-09-15T21:18:26.028Z,99636.3
2022-09-15T21:19:30.409Z,99625.36
2022-09-15T21:20:34.822Z,99642.5
2022-09-15T21:21:39.213Z,99637.31
2022-09-15T21:22:43.580Z,99641.02
2022-09-15T21:23:48.043Z,99649.7
2022-09-15T21:24:52.434Z,99641.73
2022-09-15T21:26:02.342Z,99648.77
2022-09-15T21:27:06.798Z,99642.98
2022-09-15T21:28:11.219Z,99639.17
2022-09-15T21:29:15.633Z,99637.51
2022-09-15T21:30:20.030Z,99639.44
2022-09-15T21:31:24.593Z,99639.88
2022-09-15T21:32:29.107Z,99636.58
2022-09-15T21:33:33.486Z,99626.54
2022-09-15T21:34:37.867Z,99632
2022-09-15T21:35:42.279Z,99627.16
2022-09-15T21:36:46.688Z,99631.77
2022-09-15T21:37:51.117Z,99634.14
2022-09-15T21:38:55.765Z,99633.73
2022-09-15T21:40:00.375Z,99637.27
2022-09-15T21:41:04.838Z,99631.37
2022-09-15T21:42:09.491Z,99635.71
2022-09-15T21:43:13.877Z,99636.12
2022-09-15T21:44:18.238Z,99635.92
2022-09-15T21:45:22.743Z,99633.42
2022-09-15T21:46:27.216Z,99632.6
2022-09-15T21:47:31.577Z,99631.67
2022-09-15T21:48:35.937Z,99627.32
2022-09-15T21:49:40.326Z,99630.41
2022-09-15T21:50:44.735Z,99633.73
2022-09-15T21:51:49.117Z,99631.05
2022-09-15T21:52:53.527Z,99639.31
2022-09-15T21:53:57.974Z,99636.83
2022-09-15T21:55:02.387Z,99638.92
2022-09-15T21:56:06.810Z,99635.29
2022-09-15T21:57:11.200Z,99645.27
2022-09-15T21:58:15.551Z,99645.59
2022-09-15T21:59:19.948Z,99640.84
2022-09-15T22:00:24.329Z,99649.63
2022-09-15T22:01:29.019Z,99645.72
2022-09-15T22:02:33.702Z,99645.89
2022-09-15T22:03:38.208Z,99652.13
2022-09-15T22:04:42.618Z,99646.34
2022-09-15T22:05:47.039Z,99655.92
2022-09-15T22:06:51.414Z,99651.41
2022-09-15T22:07:55.859Z,99653.97
2022-09-15T22:09:03.843Z,99651.9
2022-09-15T22:10:08.228Z,99651.67
2022-09-15T22:11:12.617Z,99658.38
2022-09-15T22:12:17.042Z,99657.75
2022-09-15T22:13:21.453Z,99651.56
2022-09-15T22:14:25.887Z,99657.48
2022-09-15T22:15:30.332Z,99654.47
2022-09-15T22:16:34.855Z,99655.27
2022-09-15T22:17:44.798Z,99651.25
2022-09-15T22:18:49.277Z,99653
2022-09-15T22:19:53.670Z,99654.42
2022-09-15T22:20:58.116Z,99653.61
2022-09-15T22:22:02.518Z,99652.18
2022-09-15T22:23:06.932Z,99654.25
2022-09-15T22:24:11.930Z,99654.27
2022-09-15T22:25:22.213Z,99654.8
2022-09-15T22:26:26.659Z,99654.25
2022-09-15T22:27:31.057Z,99657.43
2022-09-15T22:28:35.498Z,99658.77
2022-09-15T22:29:39.928Z,99658.98
2022-09-15T22:30:44.317Z,99658.05
2022-09-15T22:31:48.860Z,99655.45
2022-09-15T22:32:53.400Z,99657.34
2022-09-15T22:33:57.808Z,99659.3
2022-09-15T22:35:02.233Z,99661.26
2022-09-15T22:36:06.682Z,99657.64
2022-09-15T22:37:11.088Z,99658.66
2022-09-15T22:38:15.478Z,99657.41
2022-09-15T22:39:19.904Z,99661.44
2022-09-15T22:40:24.498Z,99657.41
2022-09-15T22:41:29.034Z,99657.84
2022-09-15T22:42:33.423Z,99654.72
2022-09-15T22:43:37.900Z,99657.11
2022-09-15T22:44:42.308Z,99658.26
2022-09-15T22:45:46.849Z,99657.73
2022-09-15T22:46:53.658Z,99659.48
2022-09-15T22:47:58.054Z,99660
2022-09-15T22:49:02.461Z,99657.41
2022-09-15T22:50:06.909Z,99664.13
2022-09-15T22:51:11.305Z,99666.93
2022-09-15T22:52:15.695Z,99663.8
2022-09-15T22:53:20.110Z,99664.65
2022-09-15T22:54:24.777Z,99664.13
2022-09-15T22:55:29.223Z,99670.42
2022-09-15T22:56:34.143Z,99665.14
2022-09-15T22:57:38.535Z,99662.9
2022-09-15T22:58:43.020Z,99666.4
2022-09-15T22:59:47.474Z,99664.65
2022-09-15T23:00:51.947Z,99669.61
2022-09-15T23:01:56.555Z,99671.68
2022-09-15T23:03:00.985Z,99665.37
2022-09-15T23:04:05.218Z,99662.38
2022-09-15T23:05:09.446Z,99660.63
2022-09-15T23:06:13.664Z,99662.98
2022-09-15T23:07:17.899Z,99662.05
2022-09-15T23:08:22.115Z,99658.34
2022-09-15T23:09:26.337Z,99664.84
2022-09-15T23:10:30.570Z,99664.24
2022-09-15T23:11:35.056Z,99659.78
2022-09-15T23:12:39.297Z,99660.22
2022-09-15T23:13:43.545Z,99664.13
2022-09-15T23:14:47.788Z,99665.59
2022-09-15T23:15:52.542Z,99668.77
2022-09-15T23:16:56.831Z,99665.27
2022-09-15T23:18:01.062Z,99664.73
2022-09-15T23:19:05.269Z,99660.71
2022-09-15T23:20:09.505Z,99667.95
2022-09-15T23:21:13.754Z,99667.52
2022-09-15T23:22:17.943Z,99668.04
2022-09-15T23:23:22.201Z,99666.29
2022-09-15T23:24:26.375Z,99668.98
2022-09-15T23:25:30.561Z,99665.97
2022-09-15T23:26:34.770Z,99670.02
2022-09-15T23:27:38.980Z,99663.8
2022-09-15T23:28:43.250Z,99665.67
2022-09-15T23:29:47.508Z,99665.59
2022-09-15T23:30:51.963Z,99664.73
2022-09-15T23:31:56.254Z,99673.73
2022-09-15T23:33:00.519Z,99680.84
2022-09-15T23:34:04.737Z,99678.48
2022-09-15T23:35:08.944Z,99679.09
2022-09-15T23:36:13.151Z,99680.53
2022-09-15T23:37:17.361Z,99676.41
2022-09-15T23:38:21.591Z,99677.94
2022-09-15T23:39:25.816Z,99685.09
2022-09-15T23:40:30.125Z,99682.9
2022-09-15T23:41:34.564Z,99680.62
2022-09-15T23:42:38.780Z,99676.59
2022-09-15T23:43:43.003Z,99685.09
2022-09-15T23:44:47.205Z,99680.21
2022-09-15T23:45:51.404Z,99688.67
2022-09-15T23:46:55.774Z,99686.92
2022-09-15T23:48:00.114Z,99691.36
2022-09-15T23:49:04.376Z,99691.36
2022-09-15T23:50:08.634Z,99687.86
2022-09-15T23:51:12.846Z,99687.45
2022-09-15T23:52:17.066Z,99687.86
2022-09-15T23:53:22.316Z,99684.86
2022-09-15T23:54:26.518Z,99681.77
2022-09-15T23:55:30.706Z,99689.29
2022-09-15T23:56:34.954Z,99681.64
2022-09-15T23:57:39.171Z,99682.48
2022-09-15T23:58:43.394Z,99685.58
2022-09-15T23:59:47.573Z,99684.23
